Time;durP1;ratioP1;P1;durP2;ratioP2;P2;SDS_P1;SDS_P2;PMS_P1;PMS_P2;Temp;Humidity;BMP_temperature;BMP_pressure;BME280_temperature;BME280_humidity;BME280_pressure;Samples;Min_cycle;Max_cycle;Signal;HPM_P1;HPM_P2
2022/06/16 00:02:01;;;;;;;;;;;;;;;;;;5081611;28;19927;-83
2022/06/16 00:04:28;;;;;;;;;;;;;;;;;;5081465;28;20352;-83
2022/06/16 00:06:55;;;;;;;;;;;;;;;;;;5081909;28;19916;-83
2022/06/16 00:09:26;;;;;;;;;;;;;;;;;;5081819;28;19924;-84
2022/06/16 00:11:54;;;;;;;;;;;;;;;;;;5081905;28;19916;-83
2022/06/16 00:14:27;;;;;;;;;;;;;;;;;;5081057;28;20284;-83
2022/06/16 00:16:55;;;;;;;;;;;;;;;;;;5081243;28;20045;-83
2022/06/16 00:19:25;;;;;;;;;;;;;;;;;;5082222;28;19917;-84
2022/06/16 00:21:52;;;;;;;;;;;;;;;;;;5083140;28;19926;-82
2022/06/16 00:24:18;;;;;;;;;;;;;;;;;;5094313;28;19919;-84
2022/06/16 00:26:43;;;;;;;;;;;;;;;;;;5103196;28;19916;-84
2022/06/16 00:29:08;;;;;;;;;;;;;;;;;;5086461;28;20266;-83
2022/06/16 00:31:35;;;;;;;;;;;;;;;;;;5085409;28;19965;-83
2022/06/16 00:34:01;;;;;;;;;;;;;;;;;;5085290;28;19920;-83
2022/06/16 00:36:26;;;;;;;;;;;;;;;;;;5101666;28;19922;-83
2022/06/16 00:38:52;;;;;;;;;;;;;;;;;;5084589;28;19959;-84
2022/06/16 00:41:18;;;;;;;;;;;;;;;;;;5084631;28;19923;-83
2022/06/16 00:43:44;;;;;;;;;;;;;;;;;;5083984;28;19919;-83
2022/06/16 00:46:18;;;;;;;;;;;;;;;;;;5085463;28;19939;-83
2022/06/16 00:48:50;;;;;;;;;;;;;;;;;;5086169;28;20516;-83
2022/06/16 00:51:30;;;;;;;;;;;;;;;;;;5085596;28;19919;-84
2022/06/16 00:53:58;;;;;;;;;;;;;;;;;;5085542;28;20335;-83
2022/06/16 00:56:24;;;;;;;;;;;;;;;;;;5085209;28;19938;-83
2022/06/16 00:58:58;;;;;;;;;;;;;;;;;;5088370;28;19915;-85
2022/06/16 01:01:26;;;;;;;;;;;;;;;;;;5088095;28;19920;-83
2022/06/16 01:06:37;;;;;;;;;;;;;;;;;;5104575;28;19915;-83
2022/06/16 01:09:08;;;;;;;;;;;;;;;;;;5104823;28;19969;-85
2022/06/16 01:14:31;;;;;;;;;;;;;;;;;;5104883;28;20420;-83
2022/06/16 01:17:03;;;;;;;;;;;;;;;;;;5104370;28;19963;-83
2022/06/16 01:19:29;;;;;;;;;;;;;;;;;;5105025;28;19916;-80
2022/06/16 01:22:10;;;;;;;;;;;;;;;;;;5086431;28;19915;-80
2022/06/16 01:24:39;;;;;;;;;;;;;;;;;;5086123;28;19916;-80
2022/06/16 01:27:26;;;;;;;;;;;;;;;;;;5086400;28;19916;-80
2022/06/16 01:29:59;;;;;;;;;;;;;;;;;;5102724;28;19923;-80
2022/06/16 01:32:35;;;;;;;;;;;;;;;;;;5085963;28;19923;-80
2022/06/16 01:35:10;;;;;;;;;;;;;;;;;;5086145;28;20338;-80
2022/06/16 01:37:39;;;;;;;;;;;;;;;;;;5086287;28;19966;-80
2022/06/16 01:40:24;;;;;;;;;;;;;;;;;;5086449;28;19916;-80
2022/06/16 01:43:12;;;;;;;;;;;;;;;;;;5086196;28;19919;-80
2022/06/16 01:45:49;;;;;;;;;;;;;;;;;;5085697;28;20373;-80
2022/06/16 01:48:21;;;;;;;;;;;;;;;;;;5086676;28;19941;-80
2022/06/16 01:50:53;;;;;;;;;;;;;;;;;;5085489;28;19916;-81
2022/06/16 01:53:27;;;;;;;;;;;;;;;;;;5085319;28;20292;-80
2022/06/16 01:55:56;;;;;;;;;;;;;;;;;;5101255;28;19916;-80
2022/06/16 01:58:24;;;;;;;;;;;;;;;;;;5101603;28;19923;-80
2022/06/16 02:00:50;;;;;;;;;;;;;;;;;;5102051;28;20388;-80
2022/06/16 02:03:20;;;;;;;;;;;;;;;;;;5085145;28;19915;-80
2022/06/16 02:05:48;;;;;;;;;;;;;;;;;;5102732;28;19922;-80
2022/06/16 02:08:19;;;;;;;;;;;;;;;;;;5084954;28;20006;-80
2022/06/16 02:10:47;;;;;;;;;;;;;;;;;;5085206;28;19916;-80
2022/06/16 02:13:18;;;;;;;;;;;;;;;;;;5085179;28;19915;-80
2022/06/16 02:15:55;;;;;;;;;;;;;;;;;;5085393;28;20300;-80
2022/06/16 02:18:22;;;;;;;;;;;;;;;;;;5084527;28;19969;-80
2022/06/16 02:21:11;;;;;;;;;;;;;;;;;;5084082;28;19923;-80
2022/06/16 02:23:39;;;;;;;;;;;;;;;;;;5080089;28;20399;-80
2022/06/16 02:26:05;;;;;;;;;;;;;;;;;;5084826;28;19919;-80
2022/06/16 02:28:41;;;;;;;;;;;;;;;;;;5085206;28;19994;-80
2022/06/16 02:31:27;;;;;;;;;;;;;;;;;;5085499;28;19915;-80
2022/06/16 02:34:01;;;;;;;;;;;;;;;;;;5101644;28;20377;-80
2022/06/16 02:36:29;;;;;;;;;;;;;;;;;;5085192;28;20039;-80
2022/06/16 02:39:09;;;;;;;;;;;;;;;;;;5084908;28;20474;-80
2022/06/16 02:41:41;;;;;;;;;;;;;;;;;;5084054;28;19923;-80
2022/06/16 02:44:12;;;;;;;;;;;;;;;;;;5101068;28;20014;-80
2022/06/16 02:46:45;;;;;;;;;;;;;;;;;;5084576;28;20316;-80
2022/06/16 02:49:29;;;;;;;;;;;;;;;;;;5100644;28;20374;-80
2022/06/16 02:51:54;;;;;;;;;;;;;;;;;;5101984;28;19915;-80
2022/06/16 02:54:33;;;;;;;;;;;;;;;;;;5085926;28;19916;-81
2022/06/16 02:57:11;;;;;;;;;;;;;;;;;;5087017;28;19927;-81
2022/06/16 02:59:40;;;;;;;;;;;;;;;;;;5101473;28;19923;-81
2022/06/16 03:02:08;;;;;;;;;;;;;;;;;;5084661;28;19920;-81
2022/06/16 03:04:36;;;;;;;;;;;;;;;;;;5101564;28;19919;-81
2022/06/16 03:07:02;;;;;;;;;;;;;;;;;;5085143;28;19938;-81
2022/06/16 03:09:28;;;;;;;;;;;;;;;;;;5100808;28;19924;-80
2022/06/16 03:11:56;;;;;;;;;;;;;;;;;;5084478;28;19923;-80
2022/06/16 03:14:23;;;;;;;;;;;;;;;;;;5083470;28;19923;-80
2022/06/16 03:16:49;;;;;;;;;;;;;;;;;;5083339;28;19915;-80
2022/06/16 03:19:14;;;;;;;;;;;;;;;;;;5083414;28;20400;-80
2022/06/16 03:21:44;;;;;;;;;;;;;;;;;;5084655;28;19923;-80
2022/06/16 03:24:12;;;;;;;;;;;;;;;;;;5077823;28;20422;-80
2022/06/16 03:26:38;;;;;;;;;;;;;;;;;;5083463;28;19960;-80
2022/06/16 03:29:07;;;;;;;;;;;;;;;;;;5083131;28;20022;-80
2022/06/16 03:31:33;;;;;;;;;;;;;;;;;;5099420;28;19915;-80
2022/06/16 03:33:59;;;;;;;;;;;;;;;;;;5099805;28;19981;-80
2022/06/16 03:36:28;;;;;;;;;;;;;;;;;;5083708;28;19958;-80
2022/06/16 03:38:54;;;;;;;;;;;;;;;;;;5082711;28;19916;-80
2022/06/16 03:41:20;;;;;;;;;;;;;;;;;;5098988;28;19938;-80
2022/06/16 03:43:46;;;;;;;;;;;;;;;;;;5099294;28;19959;-80
2022/06/16 03:46:15;;;;;;;;;;;;;;;;;;5083299;28;20329;-80
2022/06/16 03:48:47;;;;;;;;;;;;;;;;;;5082837;28;19928;-80
2022/06/16 03:51:20;;;;;;;;;;;;;;;;;;5083417;28;19974;-80
2022/06/16 03:53:45;;;;;;;;;;;;;;;;;;5078651;28;20297;-80
2022/06/16 03:56:12;;;;;;;;;;;;;;;;;;5078884;28;19916;-80
2022/06/16 03:58:38;;;;;;;;;;;;;;;;;;5078631;28;20499;-80
2022/06/16 04:01:05;;;;;;;;;;;;;;;;;;5078122;28;20003;-80
2022/06/16 04:06:20;;;;;;;;;;;;;;;;;;5079226;28;20323;-80
2022/06/16 04:08:50;;;;;;;;;;;;;;;;;;5062588;28;19920;-80
2022/06/16 04:11:27;;;;;;;;;;;;;;;;;;5078453;28;19927;-80
2022/06/16 04:14:00;;;;;;;;;;;;;;;;;;5080186;28;19942;-80
2022/06/16 04:16:26;;;;;;;;;;;;;;;;;;5078910;28;19920;-80
2022/06/16 04:18:52;;;;;;;;;;;;;;;;;;5078963;28;19916;-80
2022/06/16 04:21:17;;;;;;;;;;;;;;;;;;5078856;28;20278;-80
2022/06/16 04:24:15;;;;;;;;;;;;;;;;;;5087582;28;19923;-80
2022/06/16 04:26:45;;;;;;;;;;;;;;;;;;5078623;28;19916;-80
2022/06/16 04:29:12;;;;;;;;;;;;;;;;;;5095233;28;19920;-80
2022/06/16 04:31:41;;;;;;;;;;;;;;;;;;5095439;28;19916;-80
2022/06/16 04:34:09;;;;;;;;;;;;;;;;;;5066126;28;19916;-80
2022/06/16 04:36:38;;;;;;;;;;;;;;;;;;5098213;28;19923;-80
2022/06/16 04:39:09;;;;;;;;;;;;;;;;;;5082009;28;19924;-80
2022/06/16 04:41:36;;;;;;;;;;;;;;;;;;5082179;28;20007;-80
2022/06/16 04:44:04;;;;;;;;;;;;;;;;;;5081629;28;19938;-80
2022/06/16 04:46:36;;;;;;;;;;;;;;;;;;5099467;28;19920;-80
2022/06/16 04:49:04;;;;;;;;;;;;;;;;;;5099571;28;19920;-80
2022/06/16 04:51:35;;;;;;;;;;;;;;;;;;5082405;28;19923;-81
2022/06/16 04:54:01;;;;;;;;;;;;;;;;;;5096156;28;19916;-81
2022/06/16 04:56:59;;;;;;;;;;;;;;;;;;5074675;28;20073;-80
2022/06/16 04:59:43;;;;;;;;;;;;;;;;;;5088412;28;19919;-80
2022/06/16 05:02:22;;;;;;;;;;;;;;;;;;5102953;28;19927;-80
2022/06/16 05:05:12;;;;;;;;;;;;;;;;;;5097494;28;20405;-81
2022/06/16 05:07:49;;;;;;;;;;;;;;;;;;5086264;28;19922;-81
2022/06/16 05:10:43;;;;;;;;;;;;;;;;;;5082797;28;19927;-81
2022/06/16 05:13:37;;;;;;;;;;;;;;;;;;5102983;28;19948;-81
2022/06/16 05:16:25;;;;;;;;;;;;;;;;;;5095461;28;19922;-81
2022/06/16 05:19:13;;;;;;;;;;;;;;;;;;5089187;28;19927;-81
2022/06/16 05:22:00;;;;;;;;;;;;;;;;;;5088183;28;19916;-81
2022/06/16 05:24:44;;;;;;;;;;;;;;;;;;5084942;28;19923;-81
2022/06/16 05:27:22;;;;;;;;;;;;;;;;;;5066746;28;19923;-81
2022/06/16 05:30:15;;;;;;;;;;;;;;;;;;5069142;28;19928;-81
2022/06/16 05:33:05;;;;;;;;;;;;;;;;;;5084366;28;19920;-81
2022/06/16 05:35:57;;;;;;;;;;;;;;;;;;5081598;28;19938;-81
2022/06/16 05:38:41;;;;;;;;;;;;;;;;;;5099379;28;19927;-81
2022/06/16 05:41:25;;;;;;;;;;;;;;;;;;5099738;28;19966;-81
2022/06/16 05:44:20;;;;;;;;;;;;;;;;;;5072646;28;19916;-81
2022/06/16 05:46:48;;;;;;;;;;;;;;;;;;5082322;28;19923;-81
2022/06/16 05:49:15;;;;;;;;;;;;;;;;;;5063977;28;19920;-81
2022/06/16 05:51:44;;;;;;;;;;;;;;;;;;5081680;28;20293;-82
2022/06/16 05:54:13;;;;;;;;;;;;;;;;;;5097832;28;20010;-81
2022/06/16 05:56:42;;;;;;;;;;;;;;;;;;5084868;28;20282;-81
2022/06/16 05:59:08;;;;;;;;;;;;;;;;;;5085114;28;19923;-81
2022/06/16 06:01:35;;;;;;;;;;;;;;;;;;5098975;28;19924;-84
2022/06/16 06:04:06;;;;;;;;;;;;;;;;;;5082251;28;19923;-82
2022/06/16 06:06:32;;;;;;;;;;;;;;;;;;5071514;28;19959;-81
2022/06/16 06:17:18;;;;;;;;;;;;;;;;;;5078606;28;19956;-81
2022/06/16 06:19:44;;;;;;;;;;;;;;;;;;5077357;28;19918;-78
2022/06/16 06:22:13;;;;;;;;;;;;;;;;;;5076162;28;19916;-80
2022/06/16 06:24:45;;;;;;;;;;;;;;;;;;5078030;28;19916;-79
2022/06/16 06:27:29;;;;;;;;;;;;;;;;;;5077940;28;19916;-80
2022/06/16 06:29:57;;;;;;;;;;;;;;;;;;5060755;28;20324;-79
2022/06/16 06:32:23;;;;;;;;;;;;;;;;;;5079129;28;19946;-81
2022/06/16 06:34:49;;;;;;;;;;;;;;;;;;5063378;28;20290;-81
2022/06/16 06:37:16;;;;;;;;;;;;;;;;;;5079433;28;19916;-82
2022/06/16 06:39:42;;;;;;;;;;;;;;;;;;5079513;28;20019;-81
2022/06/16 06:42:08;;;;;;;;;;;;;;;;;;5079760;28;19955;-82
2022/06/16 06:44:35;;;;;;;;;;;;;;;;;;5078847;28;19920;-81
2022/06/16 06:47:02;;;;;;;;;;;;;;;;;;5080458;28;20003;-81
2022/06/16 06:49:29;;;;;;;;;;;;;;;;;;5078748;28;19928;-81
2022/06/16 06:51:54;;;;;;;;;;;;;;;;;;5079195;28;19916;-81
2022/06/16 06:54:20;;;;;;;;;;;;;;;;;;5062468;28;19924;-82
2022/06/16 06:56:47;;;;;;;;;;;;;;;;;;5078676;28;19928;-83
2022/06/16 06:59:15;;;;;;;;;;;;;;;;;;5079602;28;19916;-81
2022/06/16 07:01:41;;;;;;;;;;;;;;;;;;5092493;28;19943;-83
2022/06/16 07:04:08;;;;;;;;;;;;;;;;;;5089443;28;19916;-83
2022/06/16 07:06:34;;;;;;;;;;;;;;;;;;5106307;28;19916;-84
2022/06/16 07:09:00;;;;;;;;;;;;;;;;;;5085976;28;19944;-84
2022/06/16 07:11:28;;;;;;;;;;;;;;;;;;5091084;28;19916;-83
2022/06/16 07:13:53;;;;;;;;;;;;;;;;;;5104225;28;19922;-83
2022/06/16 07:16:20;;;;;;;;;;;;;;;;;;5099742;28;19923;-84
2022/06/16 07:18:48;;;;;;;;;;;;;;;;;;5082277;28;19916;-82
2022/06/16 07:21:14;;;;;;;;;;;;;;;;;;5080711;28;20369;-83
2022/06/16 07:23:41;;;;;;;;;;;;;;;;;;5073181;28;19917;-84
2022/06/16 07:26:10;;;;;;;;;;;;;;;;;;5073573;28;19916;-85
2022/06/16 07:28:36;;;;;;;;;;;;;;;;;;5076073;28;19932;-83
2022/06/16 07:31:01;;;;;;;;;;;;;;;;;;5063780;28;19920;-82
2022/06/16 07:33:26;;;;;;;;;;;;;;;;;;5085330;28;19913;-81
2022/06/16 07:35:55;;;;;;;;;;;;;;;;;;5088154;28;19921;-80
2022/06/16 07:38:22;;;;;;;;;;;;;;;;;;5079665;28;19916;-81
2022/06/16 07:40:48;;;;;;;;;;;;;;;;;;5079622;28;19943;-81
2022/06/16 07:43:14;;;;;;;;;;;;;;;;;;5063773;28;19916;-83
2022/06/16 07:45:39;;;;;;;;;;;;;;;;;;5058957;28;19916;-81
2022/06/16 07:48:06;;;;;;;;;;;;;;;;;;5076111;28;19921;-81
2022/06/16 07:50:36;;;;;;;;;;;;;;;;;;5058103;28;19923;-81
2022/06/16 07:53:02;;;;;;;;;;;;;;;;;;5075519;28;19920;-81
2022/06/16 07:55:29;;;;;;;;;;;;;;;;;;5078963;28;20027;-81
2022/06/16 07:57:56;;;;;;;;;;;;;;;;;;5080333;28;19951;-81
2022/06/16 08:00:23;;;;;;;;;;;;;;;;;;5105389;28;19930;-82
2022/06/16 08:02:49;;;;;;;;;;;;;;;;;;5118922;28;19981;-81
2022/06/16 08:05:14;;;;;;;;;;;;;;;;;;5099895;28;20022;-81
2022/06/16 08:07:42;;;;;;;;;;;;;;;;;;5084067;28;19916;-81
2022/06/16 08:10:09;;;;;;;;;;;;;;;;;;5103211;28;20375;-82
2022/06/16 08:12:34;;;;;;;;;;;;;;;;;;5103444;28;20284;-82
2022/06/16 08:15:00;;;;;;;;;;;;;;;;;;5102603;28;19916;-81
2022/06/16 08:17:27;;;;;;;;;;;;;;;;;;5102080;28;19915;-81
2022/06/16 08:19:54;;;;;;;;;;;;;;;;;;5121156;28;19981;-81
2022/06/16 08:22:20;;;;;;;;;;;;;;;;;;5086464;28;19982;-81
2022/06/16 08:24:47;;;;;;;;;;;;;;;;;;5084604;28;20387;-81
2022/06/16 08:27:13;;;;;;;;;;;;;;;;;;5066183;28;19919;-81
2022/06/16 08:29:40;;;;;;;;;;;;;;;;;;5066267;28;19920;-81
2022/06/16 08:32:06;;;;;;;;;;;;;;;;;;5099605;28;19916;-81
2022/06/16 08:34:32;;;;;;;;;;;;;;;;;;5066470;28;20007;-81
2022/06/16 08:36:59;;;;;;;;;;;;;;;;;;5093761;28;19962;-81
2022/06/16 08:39:25;;;;;;;;;;;;;;;;;;5102863;28;19941;-81
2022/06/16 08:41:53;;;;;;;;;;;;;;;;;;5103224;28;19916;-81
2022/06/16 08:44:27;;;;;;;;;;;;;;;;;;5103379;28;19922;-81
2022/06/16 08:47:12;;;;;;;;;;;;;;;;;;5085299;28;19916;-81
2022/06/16 08:49:43;;;;;;;;;;;;;;;;;;5084990;28;20323;-81
2022/06/16 08:52:08;;;;;;;;;;;;;;;;;;5103121;28;19915;-81
2022/06/16 08:54:44;;;;;;;;;;;;;;;;;;5084123;28;19916;-81
2022/06/16 08:57:14;;;;;;;;;;;;;;;;;;5065622;28;19916;-81
2022/06/16 08:59:44;;;;;;;;;;;;;;;;;;5065312;28;19938;-81
2022/06/16 09:02:19;;;;;;;;;;;;;;;;;;5080775;28;19919;-81
2022/06/16 09:04:50;;;;;;;;;;;;;;;;;;5064536;28;19970;-81
2022/06/16 09:07:16;;;;;;;;;;;;;;;;;;5080400;28;19916;-81
2022/06/16 09:10:15;;;;;;;;;;;;;;;;;;5080550;28;19920;-81
2022/06/16 09:12:40;;;;;;;;;;;;;;;;;;5063915;28;19920;-81
2022/06/16 09:15:13;;;;;;;;;;;;;;;;;;5080985;28;19916;-81
2022/06/16 09:17:59;;;;;;;;;;;;;;;;;;5063801;28;19920;-81
2022/06/16 09:20:24;;;;;;;;;;;;;;;;;;5080952;28;20397;-81
2022/06/16 09:22:56;;;;;;;;;;;;;;;;;;5079887;28;19916;-81
2022/06/16 09:25:30;;;;;;;;;;;;;;;;;;5097254;28;19920;-81
2022/06/16 09:28:00;;;;;;;;;;;;;;;;;;5063733;28;19977;-81
2022/06/16 09:30:28;;;;;;;;;;;;;;;;;;5080369;28;19920;-81
2022/06/16 09:33:02;;;;;;;;;;;;;;;;;;5081025;28;19938;-81
2022/06/16 09:35:35;;;;;;;;;;;;;;;;;;5080322;28;20293;-81
2022/06/16 09:38:04;;;;;;;;;;;;;;;;;;5100324;28;19919;-81
2022/06/16 09:40:35;;;;;;;;;;;;;;;;;;5100499;28;19916;-81
2022/06/16 09:43:07;;;;;;;;;;;;;;;;;;5083301;28;19927;-81
2022/06/16 09:45:37;;;;;;;;;;;;;;;;;;5118100;28;19951;-81
2022/06/16 09:48:05;;;;;;;;;;;;;;;;;;5100607;28;19916;-81
2022/06/16 09:50:33;;;;;;;;;;;;;;;;;;5100310;28;19915;-81
2022/06/16 09:53:04;;;;;;;;;;;;;;;;;;5100870;28;19922;-81
2022/06/16 09:55:33;;;;;;;;;;;;;;;;;;5083643;28;19916;-81
2022/06/16 09:58:03;;;;;;;;;;;;;;;;;;5083445;28;19915;-81
2022/06/16 10:00:35;;;;;;;;;;;;;;;;;;4993831;28;2434816;-81
2022/06/16 10:03:07;;;;;;;;;;;;;;;;;;5075060;28;19939;-82
2022/06/16 10:05:37;;;;;;;;;;;;;;;;;;5077111;28;19944;-81
2022/06/16 10:08:06;;;;;;;;;;;;;;;;;;5060954;28;20400;-81
2022/06/16 10:10:46;;;;;;;;;;;;;;;;;;5079138;28;20385;-81
2022/06/16 10:13:11;;;;;;;;;;;;;;;;;;5077971;28;19921;-81
2022/06/16 10:15:42;;;;;;;;;;;;;;;;;;5077936;28;19916;-81
2022/06/16 10:18:08;;;;;;;;;;;;;;;;;;5079437;28;19922;-81
2022/06/16 10:20:34;;;;;;;;;;;;;;;;;;5077503;28;19940;-81
2022/06/16 10:23:09;;;;;;;;;;;;;;;;;;5077363;28;20313;-81
2022/06/16 10:25:36;;;;;;;;;;;;;;;;;;5077591;28;19943;-81
2022/06/16 10:28:20;;;;;;;;;;;;;;;;;;5060783;28;19920;-82
2022/06/16 10:30:46;;;;;;;;;;;;;;;;;;5059311;28;19926;-81
2022/06/16 10:33:16;;;;;;;;;;;;;;;;;;5060332;28;20296;-82
2022/06/16 10:35:48;;;;;;;;;;;;;;;;;;5059655;28;19959;-81
2022/06/16 10:38:19;;;;;;;;;;;;;;;;;;5059337;28;19955;-81
2022/06/16 10:40:45;;;;;;;;;;;;;;;;;;5059790;28;19917;-82
2022/06/16 10:43:14;;;;;;;;;;;;;;;;;;5059897;28;19917;-81
2022/06/16 10:45:40;;;;;;;;;;;;;;;;;;5078641;28;19924;-81
2022/06/16 10:48:08;;;;;;;;;;;;;;;;;;5059227;28;19916;-81
2022/06/16 10:50:39;;;;;;;;;;;;;;;;;;5076059;28;19986;-81
2022/06/16 10:53:04;;;;;;;;;;;;;;;;;;5076200;28;20293;-82
2022/06/16 10:55:36;;;;;;;;;;;;;;;;;;5075474;28;19924;-80
2022/06/16 10:58:05;;;;;;;;;;;;;;;;;;5077416;28;19927;-80
2022/06/16 11:00:33;;;;;;;;;;;;;;;;;;5059781;28;19924;-80
2022/06/16 11:03:05;;;;;;;;;;;;;;;;;;5059940;28;19964;-80
2022/06/16 11:05:38;;;;;;;;;;;;;;;;;;5077905;28;19955;-79
2022/06/16 11:08:09;;;;;;;;;;;;;;;;;;5080245;28;19916;-80
2022/06/16 11:10:36;;;;;;;;;;;;;;;;;;5079847;28;20002;-79
2022/06/16 11:13:04;;;;;;;;;;;;;;;;;;5097285;28;19920;-80
2022/06/16 11:15:35;;;;;;;;;;;;;;;;;;5096910;28;19924;-80
2022/06/16 11:18:03;;;;;;;;;;;;;;;;;;5079764;28;20444;-80
2022/06/16 11:20:37;;;;;;;;;;;;;;;;;;5098018;28;19923;-79
2022/06/16 11:23:18;;;;;;;;;;;;;;;;;;5079389;28;19962;-80
2022/06/16 11:25:45;;;;;;;;;;;;;;;;;;5079653;28;19923;-79
2022/06/16 11:28:15;;;;;;;;;;;;;;;;;;5079417;28;20003;-79
2022/06/16 11:30:49;;;;;;;;;;;;;;;;;;5098016;28;20293;-79
2022/06/16 11:34:06;;;;;;;;;;;;;;;;;;5097180;28;19916;-79
2022/06/16 11:36:19;;;;;;;;;;;;;;;;;;5097798;28;19918;-79
2022/06/16 11:38:49;;;;;;;;;;;;;;;;;;5097228;28;19979;-79
2022/06/16 11:41:15;;;;;;;;;;;;;;;;;;5096540;28;19916;-79
2022/06/16 11:44:00;;;;;;;;;;;;;;;;;;5079490;28;20361;-79
2022/06/16 11:46:35;;;;;;;;;;;;;;;;;;5079427;28;20385;-79
2022/06/16 11:49:05;;;;;;;;;;;;;;;;;;5098008;28;20015;-79
2022/06/16 11:51:45;;;;;;;;;;;;;;;;;;5079563;28;19970;-79
2022/06/16 11:54:13;;;;;;;;;;;;;;;;;;5097692;28;20313;-79
2022/06/16 11:56:49;;;;;;;;;;;;;;;;;;5079381;28;19916;-79
2022/06/16 11:59:40;;;;;;;;;;;;;;;;;;5096571;28;19962;-79
2022/06/16 12:02:24;;;;;;;;;;;;;;;;;;5079112;28;19927;-79
2022/06/16 12:05:12;;;;;;;;;;;;;;;;;;5080161;28;20343;-79
2022/06/16 12:07:48;;;;;;;;;;;;;;;;;;5096448;28;19991;-79
2022/06/16 12:10:25;;;;;;;;;;;;;;;;;;5096297;28;19920;-79
2022/06/16 12:12:54;;;;;;;;;;;;;;;;;;5079830;28;19916;-79
2022/06/16 12:15:26;;;;;;;;;;;;;;;;;;5080173;28;19964;-79
2022/06/16 12:18:15;;;;;;;;;;;;;;;;;;5096510;28;20305;-80
2022/06/16 12:21:00;;;;;;;;;;;;;;;;;;5096475;28;19916;-80
2022/06/16 12:23:45;;;;;;;;;;;;;;;;;;5078775;28;19916;-79
2022/06/16 12:26:10;;;;;;;;;;;;;;;;;;5096593;28;19916;-80
2022/06/16 12:28:45;;;;;;;;;;;;;;;;;;5080550;28;19976;-82
2022/06/16 12:31:24;;;;;;;;;;;;;;;;;;5099834;28;19920;-82
2022/06/16 12:33:53;;;;;;;;;;;;;;;;;;5083813;28;20033;-82
2022/06/16 12:36:23;;;;;;;;;;;;;;;;;;5082318;28;19916;-81
2022/06/16 12:38:51;;;;;;;;;;;;;;;;;;5100417;28;19930;-82
2022/06/16 12:41:20;;;;;;;;;;;;;;;;;;5100701;28;20007;-83
2022/06/16 12:43:49;;;;;;;;;;;;;;;;;;5082562;28;19920;-82
2022/06/16 12:46:17;;;;;;;;;;;;;;;;;;5083544;28;19916;-81
2022/06/16 12:48:50;;;;;;;;;;;;;;;;;;5081580;28;19967;-82
2022/06/16 12:51:18;;;;;;;;;;;;;;;;;;5079601;28;19916;-84
2022/06/16 12:54:22;;;;;;;;;;;;;;;;;;5079530;28;20378;-84
2022/06/16 12:56:50;;;;;;;;;;;;;;;;;;4980833;28;19925;-86
2022/06/16 12:59:17;;;;;;;;;;;;;;;;;;4995673;28;19918;-88
2022/06/16 13:01:45;;;;;;;;;;;;;;;;;;5032798;28;19952;-88
2022/06/16 13:04:12;;;;;;;;;;;;;;;;;;5058844;28;19920;-87
2022/06/16 13:06:38;;;;;;;;;;;;;;;;;;5058719;28;19923;-87
2022/06/16 13:09:06;;;;;;;;;;;;;;;;;;5058583;28;19921;-86
2022/06/16 13:11:34;;;;;;;;;;;;;;;;;;5054950;28;19966;-86
2022/06/16 13:14:06;;;;;;;;;;;;;;;;;;5058749;28;19948;-86
2022/06/16 13:16:34;;;;;;;;;;;;;;;;;;5060731;28;20281;-80
2022/06/16 13:19:01;;;;;;;;;;;;;;;;;;5072775;28;19955;-81
2022/06/16 13:21:30;;;;;;;;;;;;;;;;;;5075047;28;19924;-79
2022/06/16 13:24:10;;;;;;;;;;;;;;;;;;5073292;28;19917;-80
2022/06/16 13:26:39;;;;;;;;;;;;;;;;;;5058793;28;20374;-80
2022/06/16 13:29:15;;;;;;;;;;;;;;;;;;5061313;28;20015;-77
2022/06/16 13:31:43;;;;;;;;;;;;;;;;;;5068859;28;19916;-80
2022/06/16 13:34:17;;;;;;;;;;;;;;;;;;5079914;28;19916;-84
2022/06/16 13:36:51;;;;;;;;;;;;;;;;;;5063060;28;19967;-78
2022/06/16 13:39:35;;;;;;;;;;;;;;;;;;5061248;28;19920;-79
2022/06/16 13:42:11;;;;;;;;;;;;;;;;;;5080253;28;19916;-81
2022/06/16 13:44:36;;;;;;;;;;;;;;;;;;5063560;28;19916;-81
2022/06/16 13:47:05;;;;;;;;;;;;;;;;;;5078773;28;19919;-82
2022/06/16 13:49:35;;;;;;;;;;;;;;;;;;5079020;28;19969;-79
2022/06/16 13:52:08;;;;;;;;;;;;;;;;;;5079539;28;19916;-78
2022/06/16 13:54:35;;;;;;;;;;;;;;;;;;5075951;28;19917;-81
2022/06/16 13:57:21;;;;;;;;;;;;;;;;;;5060854;28;19944;-81
2022/06/16 13:59:53;;;;;;;;;;;;;;;;;;5062842;28;19939;-81
2022/06/16 14:02:20;;;;;;;;;;;;;;;;;;5083024;28;19916;-82
2022/06/16 14:05:06;;;;;;;;;;;;;;;;;;5081645;28;19921;-80
2022/06/16 14:07:47;;;;;;;;;;;;;;;;;;5065794;28;19920;-80
2022/06/16 14:10:12;;;;;;;;;;;;;;;;;;5082750;28;19920;-80
2022/06/16 14:12:48;;;;;;;;;;;;;;;;;;5081238;28;19994;-80
2022/06/16 14:15:14;;;;;;;;;;;;;;;;;;5082278;28;19916;-80
2022/06/16 14:17:43;;;;;;;;;;;;;;;;;;5081480;28;20297;-81
2022/06/16 14:20:11;;;;;;;;;;;;;;;;;;5081128;28;19924;-79
2022/06/16 14:22:38;;;;;;;;;;;;;;;;;;5082784;28;19916;-79
2022/06/16 14:25:09;;;;;;;;;;;;;;;;;;5083031;28;19920;-77
2022/06/16 14:27:43;;;;;;;;;;;;;;;;;;5065207;28;19916;-77
2022/06/16 14:30:09;;;;;;;;;;;;;;;;;;5078619;28;19955;-79
2022/06/16 14:32:37;;;;;;;;;;;;;;;;;;5090289;28;19916;-78
2022/06/16 14:35:10;;;;;;;;;;;;;;;;;;5127973;27;19916;-80
2022/06/16 14:37:41;;;;;;;;;;;;;;;;;;5115524;28;20231;-80
2022/06/16 14:40:33;;;;;;;;;;;;;;;;;;5108128;28;19916;-80
2022/06/16 14:43:00;;;;;;;;;;;;;;;;;;5067301;28;19923;-80
2022/06/16 14:45:34;;;;;;;;;;;;;;;;;;5070226;28;19916;-81
2022/06/16 14:48:02;;;;;;;;;;;;;;;;;;5105068;28;19920;-80
2022/06/16 14:50:31;;;;;;;;;;;;;;;;;;5133631;27;19919;-80
2022/06/16 14:52:58;;;;;;;;;;;;;;;;;;5091801;28;19916;-80
2022/06/16 14:55:31;;;;;;;;;;;;;;;;;;5081634;28;19955;-81
2022/06/16 14:58:02;;;;;;;;;;;;;;;;;;5111403;27;20014;-81
2022/06/16 15:00:29;;;;;;;;;;;;;;;;;;5097609;28;19967;-78
2022/06/16 15:02:57;;;;;;;;;;;;;;;;;;5093897;28;20006;-78
2022/06/16 15:05:22;;;;;;;;;;;;;;;;;;5111408;28;19916;-79
2022/06/16 15:07:49;;;;;;;;;;;;;;;;;;5117772;28;19916;-79
2022/06/16 15:10:16;;;;;;;;;;;;;;;;;;5119038;28;20007;-79
2022/06/16 15:12:42;;;;;;;;;;;;;;;;;;5110413;28;19916;-78
2022/06/16 15:15:08;;;;;;;;;;;;;;;;;;5082208;28;19916;-79
2022/06/16 15:20:21;;;;;;;;;;;;;;;;;;5078566;28;20361;-78
2022/06/16 15:22:49;;;;;;;;;;;;;;;;;;5071715;28;19971;-79
2022/06/16 15:25:15;;;;;;;;;;;;;;;;;;5121137;27;20369;-79
2022/06/16 15:27:42;;;;;;;;;;;;;;;;;;5087864;28;19923;-78
2022/06/16 15:30:22;;;;;;;;;;;;;;;;;;5091488;28;19919;-78
2022/06/16 15:38:33;;;;;;;;;;;;;;;;;;5069020;28;19978;-78
2022/06/16 15:40:59;;;;;;;;;;;;;;;;;;5107266;28;20351;-78
2022/06/16 15:43:28;;;;;;;;;;;;;;;;;;5114068;28;20297;-80
2022/06/16 15:45:57;;;;;;;;;;;;;;;;;;5106322;28;19915;-78
2022/06/16 15:48:24;;;;;;;;;;;;;;;;;;5097517;28;19916;-78
2022/06/16 15:50:50;;;;;;;;;;;;;;;;;;5114217;28;19958;-79
2022/06/16 15:53:20;;;;;;;;;;;;;;;;;;5133522;27;19915;-79
2022/06/16 15:55:47;;;;;;;;;;;;;;;;;;5130678;28;19927;-79
2022/06/16 15:58:16;;;;;;;;;;;;;;;;;;5079540;28;19959;-77
2022/06/16 16:00:42;;;;;;;;;;;;;;;;;;5078662;28;19924;-77
2022/06/16 16:03:11;;;;;;;;;;;;;;;;;;5078513;28;19916;-76
2022/06/16 16:05:39;;;;;;;;;;;;;;;;;;5078691;28;19998;-77
2022/06/16 16:08:06;;;;;;;;;;;;;;;;;;5095540;28;20076;-76
2022/06/16 16:10:32;;;;;;;;;;;;;;;;;;5077598;28;19924;-75
2022/06/16 16:13:03;;;;;;;;;;;;;;;;;;5113713;28;20400;-75
2022/06/16 16:15:28;;;;;;;;;;;;;;;;;;5095907;28;19923;-75
2022/06/16 16:17:56;;;;;;;;;;;;;;;;;;5078889;28;19915;-75
2022/06/16 16:20:24;;;;;;;;;;;;;;;;;;5095678;28;19922;-75
2022/06/16 16:22:55;;;;;;;;;;;;;;;;;;5077967;28;19964;-75
2022/06/16 16:25:25;;;;;;;;;;;;;;;;;;5078578;28;19915;-75
2022/06/16 16:27:50;;;;;;;;;;;;;;;;;;5096158;28;19981;-75
2022/06/16 16:30:17;;;;;;;;;;;;;;;;;;5098620;28;20323;-75
2022/06/16 16:32:44;;;;;;;;;;;;;;;;;;5118354;28;19927;-76
2022/06/16 16:35:13;;;;;;;;;;;;;;;;;;5082738;28;20307;-75
2022/06/16 16:37:39;;;;;;;;;;;;;;;;;;5081275;28;20004;-76
2022/06/16 16:40:12;;;;;;;;;;;;;;;;;;5100299;28;19955;-78
2022/06/16 16:43:04;;;;;;;;;;;;;;;;;;5082901;28;19920;-77
2022/06/16 16:45:35;;;;;;;;;;;;;;;;;;5080761;28;19959;-77
2022/06/16 16:48:03;;;;;;;;;;;;;;;;;;5064981;28;19916;-80
2022/06/16 16:50:28;;;;;;;;;;;;;;;;;;5081566;28;19920;-77
2022/06/16 16:52:55;;;;;;;;;;;;;;;;;;5082567;28;19927;-78
2022/06/16 16:55:22;;;;;;;;;;;;;;;;;;5098639;28;19916;-78
2022/06/16 16:57:48;;;;;;;;;;;;;;;;;;5097451;28;19916;-77
2022/06/16 17:00:17;;;;;;;;;;;;;;;;;;5099494;28;19920;-78
2022/06/16 17:02:44;;;;;;;;;;;;;;;;;;5100044;28;19965;-82
2022/06/16 17:05:10;;;;;;;;;;;;;;;;;;5100310;28;19916;-80
2022/06/16 17:07:38;;;;;;;;;;;;;;;;;;5087445;28;20377;-79
2022/06/16 17:10:04;;;;;;;;;;;;;;;;;;5111221;28;19987;-80
2022/06/16 17:12:35;;;;;;;;;;;;;;;;;;5091613;28;19920;-79
2022/06/16 17:15:01;;;;;;;;;;;;;;;;;;5124133;28;19919;-80
2022/06/16 17:17:29;;;;;;;;;;;;;;;;;;5127765;28;19923;-79
2022/06/16 17:19:56;;;;;;;;;;;;;;;;;;5095318;28;20383;-79
2022/06/16 17:22:21;;;;;;;;;;;;;;;;;;5091222;28;19947;-83
2022/06/16 17:24:48;;;;;;;;;;;;;;;;;;5088114;28;19923;-78
2022/06/16 17:27:13;;;;;;;;;;;;;;;;;;5086448;28;19916;-79
2022/06/16 17:29:39;;;;;;;;;;;;;;;;;;5101916;28;20009;-78
2022/06/16 17:32:06;;;;;;;;;;;;;;;;;;5102177;28;19912;-77
2022/06/16 17:34:41;;;;;;;;;;;;;;;;;;5117595;28;19919;-78
2022/06/16 17:37:21;;;;;;;;;;;;;;;;;;5083708;28;20273;-78